sensor_id;sensor_type;location;lat;lon;timestamp;pressure;altitude;pressure_sealevel;temperature
67515;BMP280;60646;55.802;37.032;2023-03-19T00:01:55;101076.78;;;0.41
67515;BMP280;60646;55.802;37.032;2023-03-19T00:04:22;101070.78;;;0.40
67515;BMP280;60646;55.802;37.032;2023-03-19T00:06:49;101054.25;;;0.29
67515;BMP280;60646;55.802;37.032;2023-03-19T00:09:16;101082.06;;;0.44
67515;BMP280;60646;55.802;37.032;2023-03-19T00:11:42;101068.91;;;0.30
67515;BMP280;60646;55.802;37.032;2023-03-19T00:14:07;101070.00;;;0.29
67515;BMP280;60646;55.802;37.032;2023-03-19T00:16:33;101057.22;;;0.24
67515;BMP280;60646;55.802;37.032;2023-03-19T00:18:59;101059.50;;;0.26
67515;BMP280;60646;55.802;37.032;2023-03-19T00:21:25;101059.50;;;0.22
67515;BMP280;60646;55.802;37.032;2023-03-19T00:23:51;101064.75;;;0.26
67515;BMP280;60646;55.802;37.032;2023-03-19T00:26:17;101075.28;;;0.29
67515;BMP280;60646;55.802;37.032;2023-03-19T00:28:43;101064.00;;;0.25
67515;BMP280;60646;55.802;37.032;2023-03-19T00:31:12;101059.50;;;0.22
67515;BMP280;60646;55.802;37.032;2023-03-19T00:33:38;101053.47;;;0.22
67515;BMP280;60646;55.802;37.032;2023-03-19T00:36:05;101052.31;;;0.19
67515;BMP280;60646;55.802;37.032;2023-03-19T00:38:31;101047.41;;;0.14
67515;BMP280;60646;55.802;37.032;2023-03-19T00:40:57;101066.63;;;0.29
67515;BMP280;60646;55.802;37.032;2023-03-19T00:43:24;101054.94;;;0.16
67515;BMP280;60646;55.802;37.032;2023-03-19T00:45:51;101042.94;;;0.18
67515;BMP280;60646;55.802;37.032;2023-03-19T00:48:17;101051.59;;;0.22
67515;BMP280;60646;55.802;37.032;2023-03-19T00:50:43;101050.47;;;0.20
67515;BMP280;60646;55.802;37.032;2023-03-19T00:53:09;101065.88;;;0.28
67515;BMP280;60646;55.802;37.032;2023-03-19T00:55:35;101047.81;;;0.20
67515;BMP280;60646;55.802;37.032;2023-03-19T00:58:01;101055.00;;;0.26
67515;BMP280;60646;55.802;37.032;2023-03-19T01:00:27;101036.91;;;0.11
67515;BMP280;60646;55.802;37.032;2023-03-19T01:02:53;101037.66;;;0.15
67515;BMP280;60646;55.802;37.032;2023-03-19T01:05:19;101028.25;;;0.10
67515;BMP280;60646;55.802;37.032;2023-03-19T01:07:45;101036.94;;;0.18
67515;BMP280;60646;55.802;37.032;2023-03-19T01:10:10;101026.38;;;0.07
67515;BMP280;60646;55.802;37.032;2023-03-19T01:12:37;101024.13;;;0.06
67515;BMP280;60646;55.802;37.032;2023-03-19T01:15:05;101044.44;;;0.19
67515;BMP280;60646;55.802;37.032;2023-03-19T01:17:31;101027.50;;;0.06
67515;BMP280;60646;55.802;37.032;2023-03-19T01:19:57;101019.59;;;-0.01
67515;BMP280;60646;55.802;37.032;2023-03-19T01:22:23;101025.63;;;0.03
67515;BMP280;60646;55.802;37.032;2023-03-19T01:24:54;101033.88;;;0.02
67515;BMP280;60646;55.802;37.032;2023-03-19T01:27:20;101027.47;;;-0.01
67515;BMP280;60646;55.802;37.032;2023-03-19T01:29:47;101019.59;;;-0.05
67515;BMP280;60646;55.802;37.032;2023-03-19T01:32:24;101037.25;;;0.02
67515;BMP280;60646;55.802;37.032;2023-03-19T01:35:12;101036.88;;;0.00
67515;BMP280;60646;55.802;37.032;2023-03-19T01:37:37;101029.72;;;-0.03
67515;BMP280;60646;55.802;37.032;2023-03-19T01:40:04;101025.56;;;-0.04
67515;BMP280;60646;55.802;37.032;2023-03-19T01:42:31;101018.41;;;-0.14
67515;BMP280;60646;55.802;37.032;2023-03-19T01:44:57;101016.13;;;-0.19
67515;BMP280;60646;55.802;37.032;2023-03-19T01:48:03;100998.44;;;-0.29
67515;BMP280;60646;55.802;37.032;2023-03-19T01:50:50;101010.88;;;-0.23
67515;BMP280;60646;55.802;37.032;2023-03-19T01:53:50;101012.69;;;-0.27
67515;BMP280;60646;55.802;37.032;2023-03-19T01:56:38;101005.97;;;-0.28
67515;BMP280;60646;55.802;37.032;2023-03-19T01:59:24;100993.50;;;-0.41
67515;BMP280;60646;55.802;37.032;2023-03-19T02:02:29;100998.41;;;-0.36
67515;BMP280;60646;55.802;37.032;2023-03-19T02:05:05;101006.28;;;-0.36
67515;BMP280;60646;55.802;37.032;2023-03-19T02:07:34;101020.16;;;-0.32
67515;BMP280;60646;55.802;37.032;2023-03-19T02:10:05;101010.00;;;-0.37
67515;BMP280;60646;55.802;37.032;2023-03-19T02:12:32;100999.44;;;-0.45
67515;BMP280;60646;55.802;37.032;2023-03-19T02:14:58;100997.56;;;-0.48
67515;BMP280;60646;55.802;37.032;2023-03-19T02:17:32;100987.41;;;-0.53
67515;BMP280;60646;55.802;37.032;2023-03-19T02:28:17;100975.38;;;-0.61
67515;BMP280;60646;55.802;37.032;2023-03-19T02:30:44;100989.28;;;-0.50
67515;BMP280;60646;55.802;37.032;2023-03-19T02:33:17;100995.34;;;-0.46
67515;BMP280;60646;55.802;37.032;2023-03-19T02:35:44;100975.41;;;-0.54
67515;BMP280;60646;55.802;37.032;2023-03-19T02:38:13;100992.72;;;-0.46
67515;BMP280;60646;55.802;37.032;2023-03-19T02:40:48;100965.25;;;-0.59
67515;BMP280;60646;55.802;37.032;2023-03-19T02:43:15;100975.78;;;-0.55
67515;BMP280;60646;55.802;37.032;2023-03-19T02:45:41;100978.78;;;-0.57
67515;BMP280;60646;55.802;37.032;2023-03-19T02:48:07;100968.25;;;-0.64
67515;BMP280;60646;55.802;37.032;2023-03-19T02:50:33;100972.00;;;-0.58
67515;BMP280;60646;55.802;37.032;2023-03-19T02:52:58;100960.72;;;-0.69
67515;BMP280;60646;55.802;37.032;2023-03-19T02:55:24;100973.50;;;-0.60
67515;BMP280;60646;55.802;37.032;2023-03-19T02:57:50;100968.97;;;-0.63
67515;BMP280;60646;55.802;37.032;2023-03-19T03:00:16;100987.75;;;-0.58
67515;BMP280;60646;55.802;37.032;2023-03-19T03:02:43;100951.63;;;-0.82
67515;BMP280;60646;55.802;37.032;2023-03-19T03:05:09;100964.78;;;-0.75
67515;BMP280;60646;55.802;37.032;2023-03-19T03:07:36;100977.91;;;-0.75
67515;BMP280;60646;55.802;37.032;2023-03-19T03:10:02;100969.63;;;-0.80
67515;BMP280;60646;55.802;37.032;2023-03-19T03:12:28;100962.84;;;-0.85
67515;BMP280;60646;55.802;37.032;2023-03-19T03:14:54;100961.69;;;-0.91
67515;BMP280;60646;55.802;37.032;2023-03-19T03:17:20;100971.03;;;-0.90
67515;BMP280;60646;55.802;37.032;2023-03-19T03:19:45;100956.03;;;-0.97
67515;BMP280;60646;55.802;37.032;2023-03-19T03:22:12;100966.53;;;-0.93
67515;BMP280;60646;55.802;37.032;2023-03-19T03:24:38;100961.28;;;-0.93
67515;BMP280;60646;55.802;37.032;2023-03-19T03:27:04;100970.28;;;-0.91
67515;BMP280;60646;55.802;37.032;2023-03-19T03:29:29;100967.63;;;-0.98
67515;BMP280;60646;55.802;37.032;2023-03-19T03:31:55;100965.75;;;-0.97
67515;BMP280;60646;55.802;37.032;2023-03-19T03:34:21;100966.50;;;-1.00
67515;BMP280;60646;55.802;37.032;2023-03-19T03:36:48;100960.44;;;-1.04
67515;BMP280;60646;55.802;37.032;2023-03-19T03:39:14;100961.19;;;-1.04
67515;BMP280;60646;55.802;37.032;2023-03-19T03:41:40;100955.94;;;-1.07
67515;BMP280;60646;55.802;37.032;2023-03-19T03:44:06;100954.41;;;-1.08
67515;BMP280;60646;55.802;37.032;2023-03-19T03:46:34;100960.81;;;-1.09
67515;BMP280;60646;55.802;37.032;2023-03-19T03:49:01;100961.13;;;-1.14
67515;BMP280;60646;55.802;37.032;2023-03-19T03:51:27;100953.63;;;-1.16
67515;BMP280;60646;55.802;37.032;2023-03-19T03:53:52;100950.56;;;-1.21
67515;BMP280;60646;55.802;37.032;2023-03-19T03:56:18;100947.94;;;-1.25
67515;BMP280;60646;55.802;37.032;2023-03-19T03:58:44;100947.19;;;-1.25
67515;BMP280;60646;55.802;37.032;2023-03-19T04:01:14;100957.34;;;-1.20
67515;BMP280;60646;55.802;37.032;2023-03-19T04:03:43;100951.69;;;-1.22
67515;BMP280;60646;55.802;37.032;2023-03-19T04:06:13;100950.56;;;-1.25
67515;BMP280;60646;55.802;37.032;2023-03-19T04:08:40;100951.31;;;-1.24
67515;BMP280;60646;55.802;37.032;2023-03-19T04:11:07;100958.09;;;-1.20
67515;BMP280;60646;55.802;37.032;2023-03-19T04:13:33;100965.97;;;-1.16
67515;BMP280;60646;55.802;37.032;2023-03-19T04:16:03;100949.78;;;-1.25
67515;BMP280;60646;55.802;37.032;2023-03-19T04:18:29;100967.88;;;-1.13
67515;BMP280;60646;55.802;37.032;2023-03-19T04:20:55;100954.31;;;-1.22
67515;BMP280;60646;55.802;37.032;2023-03-19T04:23:23;100947.59;;;-1.23
67515;BMP280;60646;55.802;37.032;2023-03-19T04:25:48;100952.84;;;-1.20
67515;BMP280;60646;55.802;37.032;2023-03-19T04:28:15;100946.06;;;-1.24
67515;BMP280;60646;55.802;37.032;2023-03-19T04:31:12;100970.22;;;-1.01
67515;BMP280;60646;55.802;37.032;2023-03-19T04:34:00;100957.44;;;-1.06
67515;BMP280;60646;55.802;37.032;2023-03-19T04:36:26;100967.28;;;-0.96
67515;BMP280;60646;55.802;37.032;2023-03-19T04:38:52;100948.84;;;-1.03
67515;BMP280;60646;55.802;37.032;2023-03-19T04:41:19;100948.53;;;-0.95
67515;BMP280;60646;55.802;37.032;2023-03-19T04:43:59;100939.53;;;-0.97
67515;BMP280;60646;55.802;37.032;2023-03-19T04:46:27;100945.59;;;-0.86
67515;BMP280;60646;55.802;37.032;2023-03-19T04:48:52;100932.13;;;-0.81
67515;BMP280;60646;55.802;37.032;2023-03-19T04:51:18;100937.84;;;-0.68
67515;BMP280;60646;55.802;37.032;2023-03-19T04:53:46;100930.00;;;-0.65
67515;BMP280;60646;55.802;37.032;2023-03-19T04:56:12;100938.31;;;-0.56
67515;BMP280;60646;55.802;37.032;2023-03-19T04:58:42;100939.84;;;-0.44
67515;BMP280;60646;55.802;37.032;2023-03-19T05:01:08;100935.75;;;-0.41
67515;BMP280;60646;55.802;37.032;2023-03-19T05:03:54;100918.88;;;-0.40
67515;BMP280;60646;55.802;37.032;2023-03-19T05:06:21;100921.22;;;-0.28
67515;BMP280;60646;55.802;37.032;2023-03-19T05:08:46;100931.00;;;-0.18
67515;BMP280;60646;55.802;37.032;2023-03-19T05:11:15;100928.03;;;-0.06
67515;BMP280;60646;55.802;37.032;2023-03-19T05:13:56;100910.41;;;-0.09
67515;BMP280;60646;55.802;37.032;2023-03-19T05:16:22;100917.19;;;0.03
67515;BMP280;60646;55.802;37.032;2023-03-19T05:18:47;100916.81;;;0.11
67515;BMP280;60646;55.802;37.032;2023-03-19T05:21:14;100913.44;;;0.14
67515;BMP280;60646;55.802;37.032;2023-03-19T05:23:42;100914.59;;;0.20
67515;BMP280;60646;55.802;37.032;2023-03-19T05:26:08;100914.22;;;0.25
67515;BMP280;60646;55.802;37.032;2023-03-19T05:29:03;100920.59;;;0.42
67515;BMP280;60646;55.802;37.032;2023-03-19T05:31:45;100904.09;;;0.49
67515;BMP280;60646;55.802;37.032;2023-03-19T05:34:13;100911.59;;;0.61
67515;BMP280;60646;55.802;37.032;2023-03-19T05:36:39;100907.09;;;0.65
67515;BMP280;60646;55.802;37.032;2023-03-19T05:39:13;100907.47;;;0.77
67515;BMP280;60646;55.802;37.032;2023-03-19T05:41:42;100895.81;;;0.82
67515;BMP280;60646;55.802;37.032;2023-03-19T05:44:09;100909.31;;;1.05
67515;BMP280;60646;55.802;37.032;2023-03-19T05:46:48;100892.03;;;1.01
67515;BMP280;60646;55.802;37.032;2023-03-19T05:49:15;100891.25;;;1.14
67515;BMP280;60646;55.802;37.032;2023-03-19T05:51:41;100906.28;;;1.31
67515;BMP280;60646;55.802;37.032;2023-03-19T05:54:07;100886.66;;;1.40
67515;BMP280;60646;55.802;37.032;2023-03-19T05:57:09;100883.66;;;1.45
67515;BMP280;60646;55.802;37.032;2023-03-19T05:59:44;100878.72;;;1.54
67515;BMP280;60646;55.802;37.032;2023-03-19T06:02:23;100889.19;;;1.71
67515;BMP280;60646;55.802;37.032;2023-03-19T06:05:09;100885.00;;;1.81
67515;BMP280;60646;55.802;37.032;2023-03-19T06:07:35;100884.53;;;1.93
67515;BMP280;60646;55.802;37.032;2023-03-19T06:10:04;100863.81;;;1.95
67515;BMP280;60646;55.802;37.032;2023-03-19T06:12:31;100871.97;;;2.11
67515;BMP280;60646;55.802;37.032;2023-03-19T06:15:17;100868.16;;;2.19
67515;BMP280;60646;55.802;37.032;2023-03-19T06:17:43;100867.31;;;2.29
67515;BMP280;60646;55.802;37.032;2023-03-19T06:20:11;100876.94;;;2.50
67515;BMP280;60646;55.802;37.032;2023-03-19T06:22:39;100867.94;;;2.48
67515;BMP280;60646;55.802;37.032;2023-03-19T06:25:05;100858.81;;;2.56
67515;BMP280;60646;55.802;37.032;2023-03-19T06:27:35;100861.72;;;2.65
67515;BMP280;60646;55.802;37.032;2023-03-19T06:30:26;100872.13;;;2.83
67515;BMP280;60646;55.802;37.032;2023-03-19T06:32:55;100865.31;;;2.85
67515;BMP280;60646;55.802;37.032;2023-03-19T06:35:22;100854.72;;;2.89
67515;BMP280;60646;55.802;37.032;2023-03-19T06:37:48;100854.63;;;2.96
67515;BMP280;60646;55.802;37.032;2023-03-19T06:40:14;100851.16;;;3.02
67515;BMP280;60646;55.802;37.032;2023-03-19T06:42:43;100852.53;;;3.14
67515;BMP280;60646;55.802;37.032;2023-03-19T06:45:10;100851.72;;;3.20
67515;BMP280;60646;55.802;37.032;2023-03-19T06:47:45;100860.97;;;3.36
67515;BMP280;60646;55.802;37.032;2023-03-19T06:50:13;100841.75;;;3.32
67515;BMP280;60646;55.802;37.032;2023-03-19T06:52:41;100846.16;;;3.42
67515;BMP280;60646;55.802;37.032;2023-03-19T06:55:13;100836.63;;;3.48
67515;BMP280;60646;55.802;37.032;2023-03-19T06:57:40;100837.69;;;3.54
67515;BMP280;60646;55.802;37.032;2023-03-19T07:00:16;100843.88;;;3.70
67515;BMP280;60646;55.802;37.032;2023-03-19T07:03:02;100829.91;;;3.70
67515;BMP280;60646;55.802;37.032;2023-03-19T07:06:02;100831.66;;;3.80
67515;BMP280;60646;55.802;37.032;2023-03-19T07:09:11;100824.75;;;3.86
67515;BMP280;60646;55.802;37.032;2023-03-19T07:11:37;100829.53;;;3.95
67515;BMP280;60646;55.802;37.032;2023-03-19T07:14:03;100819.97;;;4.01
67515;BMP280;60646;55.802;37.032;2023-03-19T07:16:32;100824.38;;;4.11
67515;BMP280;60646;55.802;37.032;2023-03-19T07:18:58;100814.44;;;4.15
67515;BMP280;60646;55.802;37.032;2023-03-19T07:21:24;100810.59;;;4.19
67515;BMP280;60646;55.802;37.032;2023-03-19T07:23:49;100805.91;;;4.31
67515;BMP280;60646;55.802;37.032;2023-03-19T07:26:16;100802.44;;;4.34
67515;BMP280;60646;55.802;37.032;2023-03-19T07:28:42;100804.94;;;4.41
67515;BMP280;60646;55.802;37.032;2023-03-19T07:31:08;100799.53;;;4.48
67515;BMP280;60646;55.802;37.032;2023-03-19T07:33:34;100779.59;;;4.43
67515;BMP280;60646;55.802;37.032;2023-03-19T07:36:00;100792.63;;;4.54
67515;BMP280;60646;55.802;37.032;2023-03-19T07:38:26;100801.44;;;4.67
67515;BMP280;60646;55.802;37.032;2023-03-19T07:40:51;100793.16;;;4.65
67515;BMP280;60646;55.802;37.032;2023-03-19T07:43:17;100785.56;;;4.67
67515;BMP280;60646;55.802;37.032;2023-03-19T07:45:43;100792.19;;;4.75
67515;BMP280;60646;55.802;37.032;2023-03-19T07:48:09;100789.06;;;4.80
67515;BMP280;60646;55.802;37.032;2023-03-19T07:50:35;100773.19;;;4.80
67515;BMP280;60646;55.802;37.032;2023-03-19T07:53:01;100776.84;;;4.86
67515;BMP280;60646;55.802;37.032;2023-03-19T07:55:28;100777.84;;;4.92
67515;BMP280;60646;55.802;37.032;2023-03-19T07:57:54;100764.94;;;4.94
67515;BMP280;60646;55.802;37.032;2023-03-19T08:00:20;100773.09;;;5.03
67515;BMP280;60646;55.802;37.032;2023-03-19T08:02:46;100787.50;;;5.18
67515;BMP280;60646;55.802;37.032;2023-03-19T08:05:12;100769.78;;;5.15
67515;BMP280;60646;55.802;37.032;2023-03-19T08:07:39;100773.09;;;5.19
67515;BMP280;60646;55.802;37.032;2023-03-19T08:10:05;100778.06;;;5.34
67515;BMP280;60646;55.802;37.032;2023-03-19T08:12:31;100754.72;;;5.29
67515;BMP280;60646;55.802;37.032;2023-03-19T08:14:59;100757.56;;;5.38
67515;BMP280;60646;55.802;37.032;2023-03-19T08:17:25;100765.56;;;5.50
67515;BMP280;60646;55.802;37.032;2023-03-19T08:19:54;100753.47;;;5.49
67515;BMP280;60646;55.802;37.032;2023-03-19T08:22:20;100749.56;;;5.54
67515;BMP280;60646;55.802;37.032;2023-03-19T08:24:46;100732.97;;;5.53
67515;BMP280;60646;55.802;37.032;2023-03-19T08:27:12;100738.31;;;5.66
67515;BMP280;60646;55.802;37.032;2023-03-19T08:29:38;100729.88;;;5.71
67515;BMP280;60646;55.802;37.032;2023-03-19T08:32:04;100731.16;;;5.79
67515;BMP280;60646;55.802;37.032;2023-03-19T08:34:31;100714.09;;;5.80
67515;BMP280;60646;55.802;37.032;2023-03-19T08:36:57;100739.28;;;6.01
67515;BMP280;60646;55.802;37.032;2023-03-19T08:39:23;100736.47;;;6.08
67515;BMP280;60646;55.802;37.032;2023-03-19T08:41:53;100730.94;;;6.15
67515;BMP280;60646;55.802;37.032;2023-03-19T08:44:46;100733.34;;;6.26
67515;BMP280;60646;55.802;37.032;2023-03-19T08:47:12;100737.78;;;6.29
67515;BMP280;60646;55.802;37.032;2023-03-19T08:49:37;100724.84;;;6.31
67515;BMP280;60646;55.802;37.032;2023-03-19T08:52:04;100706.69;;;6.29
67515;BMP280;60646;55.802;37.032;2023-03-19T08:54:30;100726.56;;;6.50
67515;BMP280;60646;55.802;37.032;2023-03-19T08:56:56;100719.56;;;6.56
67515;BMP280;60646;55.802;37.032;2023-03-19T08:59:22;100707.16;;;6.53
67515;BMP280;60646;55.802;37.032;2023-03-19T09:01:52;100698.31;;;6.56
67515;BMP280;60646;55.802;37.032;2023-03-19T09:04:19;100694.31;;;6.64
67515;BMP280;60646;55.802;37.032;2023-03-19T09:06:46;100710.44;;;6.82
67515;BMP280;60646;55.802;37.032;2023-03-19T09:09:17;100694.63;;;6.79
67515;BMP280;60646;55.802;37.032;2023-03-19T09:11:44;100690.06;;;6.79
67515;BMP280;60646;55.802;37.032;2023-03-19T09:14:11;100708.84;;;6.97
67515;BMP280;60646;55.802;37.032;2023-03-19T09:16:38;100698.53;;;6.99
67515;BMP280;60646;55.802;37.032;2023-03-19T09:19:05;100703.84;;;7.12
67515;BMP280;60646;55.802;37.032;2023-03-19T09:21:35;100693.84;;;7.16
67515;BMP280;60646;55.802;37.032;2023-03-19T09:24:04;100693.38;;;7.17
67515;BMP280;60646;55.802;37.032;2023-03-19T09:26:31;100691.38;;;7.21
67515;BMP280;60646;55.802;37.032;2023-03-19T09:28:57;100694.41;;;7.33
67515;BMP280;60646;55.802;37.032;2023-03-19T09:31:23;100696.88;;;7.40
67515;BMP280;60646;55.802;37.032;2023-03-19T09:33:50;100692.16;;;7.44
67515;BMP280;60646;55.802;37.032;2023-03-19T09:36:17;100699.16;;;7.50
67515;BMP280;60646;55.802;37.032;2023-03-19T09:38:42;100684.25;;;7.53
67515;BMP280;60646;55.802;37.032;2023-03-19T09:41:14;100688.16;;;7.61
67515;BMP280;60646;55.802;37.032;2023-03-19T09:46:49;100672.69;;;7.68
67515;BMP280;60646;55.802;37.032;2023-03-19T09:49:20;100675.84;;;7.76
67515;BMP280;60646;55.802;37.032;2023-03-19T09:54:46;100657.41;;;7.82
67515;BMP280;60646;55.802;37.032;2023-03-19T09:57:13;100665.75;;;7.93
67515;BMP280;60646;55.802;37.032;2023-03-19T09:59:43;100655.00;;;7.96
67515;BMP280;60646;55.802;37.032;2023-03-19T10:02:25;100645.06;;;7.97
67515;BMP280;60646;55.802;37.032;2023-03-19T10:05:02;100659.03;;;8.10
67515;BMP280;60646;55.802;37.032;2023-03-19T10:16:26;100645.66;;;8.31
67515;BMP280;60646;55.802;37.032;2023-03-19T10:18:57;100626.44;;;8.27
67515;BMP280;60646;55.802;37.032;2023-03-19T10:21:30;100627.22;;;8.37
67515;BMP280;60646;55.802;37.032;2023-03-19T10:24:36;100620.72;;;8.38
67515;BMP280;60646;55.802;37.032;2023-03-19T10:26:59;100612.88;;;8.44
67515;BMP280;60646;55.802;37.032;2023-03-19T10:29:26;100622.97;;;8.58
67515;BMP280;60646;55.802;37.032;2023-03-19T10:34:46;100621.94;;;8.64
67515;BMP280;60646;55.802;37.032;2023-03-19T10:37:26;100623.25;;;8.69
67515;BMP280;60646;55.802;37.032;2023-03-19T10:39:58;100604.03;;;8.65
67515;BMP280;60646;55.802;37.032;2023-03-19T10:47:39;100614.72;;;8.83
67515;BMP280;60646;55.802;37.032;2023-03-19T10:50:09;100623.31;;;8.87
67515;BMP280;60646;55.802;37.032;2023-03-19T10:52:41;100624.63;;;8.92
67515;BMP280;60646;55.802;37.032;2023-03-19T10:55:16;100614.56;;;8.96
67515;BMP280;60646;55.802;37.032;2023-03-19T10:57:45;100594.75;;;8.88
67515;BMP280;60646;55.802;37.032;2023-03-19T11:00:24;100607.31;;;9.05
67515;BMP280;60646;55.802;37.032;2023-03-19T11:02:53;100593.81;;;9.00
67515;BMP280;60646;55.802;37.032;2023-03-19T11:07:50;100590.72;;;9.10
67515;BMP280;60646;55.802;37.032;2023-03-19T11:10:21;100596.66;;;9.14
67515;BMP280;60646;55.802;37.032;2023-03-19T11:12:54;100572.97;;;9.07
67515;BMP280;60646;55.802;37.032;2023-03-19T11:15:26;100580.81;;;9.20
67515;BMP280;60646;55.802;37.032;2023-03-19T11:17:58;100571.50;;;9.15
67515;BMP280;60646;55.802;37.032;2023-03-19T11:20:31;100579.72;;;9.26
67515;BMP280;60646;55.802;37.032;2023-03-19T11:22:57;100581.81;;;9.31
67515;BMP280;60646;55.802;37.032;2023-03-19T11:25:35;100574.72;;;9.28
67515;BMP280;60646;55.802;37.032;2023-03-19T11:28:16;100576.47;;;9.31
67515;BMP280;60646;55.802;37.032;2023-03-19T11:30:58;100555.47;;;9.24
67515;BMP280;60646;55.802;37.032;2023-03-19T11:36:08;100569.63;;;9.39
67515;BMP280;60646;55.802;37.032;2023-03-19T11:42:05;100560.03;;;9.42
67515;BMP280;60646;55.802;37.032;2023-03-19T11:47:29;100547.69;;;9.44
67515;BMP280;60646;55.802;37.032;2023-03-19T11:52:56;100534.66;;;9.47
67515;BMP280;60646;55.802;37.032;2023-03-19T12:01:05;100497.34;;;9.37
67515;BMP280;60646;55.802;37.032;2023-03-19T12:20:26;100472.72;;;9.52
67515;BMP280;60646;55.802;37.032;2023-03-19T12:23:03;100496.34;;;9.68
67515;BMP280;60646;55.802;37.032;2023-03-19T12:25:53;100494.53;;;9.74
67515;BMP280;60646;55.802;37.032;2023-03-19T12:28:30;100491.31;;;9.70
67515;BMP280;60646;55.802;37.032;2023-03-19T12:31:02;100491.56;;;9.72
67515;BMP280;60646;55.802;37.032;2023-03-19T12:36:31;100449.56;;;9.58
67515;BMP280;60646;55.802;37.032;2023-03-19T12:39:13;100470.09;;;9.75
67515;BMP280;60646;55.802;37.032;2023-03-19T12:41:59;100466.38;;;9.73
67515;BMP280;60646;55.802;37.032;2023-03-19T12:44:42;100455.38;;;9.80
67515;BMP280;60646;55.802;37.032;2023-03-19T12:47:21;100459.25;;;9.79
67515;BMP280;60646;55.802;37.032;2023-03-19T12:49:58;100437.38;;;9.66
67515;BMP280;60646;55.802;37.032;2023-03-19T12:52:32;100441.50;;;9.67
67515;BMP280;60646;55.802;37.032;2023-03-19T12:55:05;100460.72;;;9.80
67515;BMP280;60646;55.802;37.032;2023-03-19T13:00:09;100459.81;;;9.83
67515;BMP280;60646;55.802;37.032;2023-03-19T13:03:05;100445.81;;;9.88
67515;BMP280;60646;55.802;37.032;2023-03-19T13:05:38;100434.50;;;9.78
67515;BMP280;60646;55.802;37.032;2023-03-19T13:08:34;100431.94;;;9.84
67515;BMP280;60646;55.802;37.032;2023-03-19T13:11:07;100429.25;;;9.84
67515;BMP280;60646;55.802;37.032;2023-03-19T13:13:52;100411.97;;;9.79
67515;BMP280;60646;55.802;37.032;2023-03-19T13:16:41;100435.72;;;9.92
67515;BMP280;60646;55.802;37.032;2023-03-19T13:19:20;100435.28;;;9.93
67515;BMP280;60646;55.802;37.032;2023-03-19T13:21:52;100436.00;;;9.94
67515;BMP280;60646;55.802;37.032;2023-03-19T13:24:28;100432.41;;;9.97
67515;BMP280;60646;55.802;37.032;2023-03-19T13:26:56;100422.06;;;9.90
67515;BMP280;60646;55.802;37.032;2023-03-19T13:29:25;100409.22;;;9.88
67515;BMP280;60646;55.802;37.032;2023-03-19T13:31:52;100420.84;;;10.00
67515;BMP280;60646;55.802;37.032;2023-03-19T13:34:25;100399.09;;;9.92
67515;BMP280;60646;55.802;37.032;2023-03-19T13:39:29;100412.66;;;10.04
67515;BMP280;60646;55.802;37.032;2023-03-19T13:45:01;100412.75;;;10.09
67515;BMP280;60646;55.802;37.032;2023-03-19T13:50:01;100404.09;;;10.14
67515;BMP280;60646;55.802;37.032;2023-03-19T13:58:17;100405.41;;;10.19
67515;BMP280;60646;55.802;37.032;2023-03-19T14:01:40;100397.72;;;10.21
67515;BMP280;60646;55.802;37.032;2023-03-19T14:04:35;100389.19;;;10.22
67515;BMP280;60646;55.802;37.032;2023-03-19T14:17:25;100374.28;;;10.16
67515;BMP280;60646;55.802;37.032;2023-03-19T14:19:53;100368.78;;;10.19
67515;BMP280;60646;55.802;37.032;2023-03-19T14:29:04;100361.97;;;10.18
67515;BMP280;60646;55.802;37.032;2023-03-19T14:37:00;100360.78;;;10.19
67515;BMP280;60646;55.802;37.032;2023-03-19T14:39:38;100353.94;;;10.18
67515;BMP280;60646;55.802;37.032;2023-03-19T14:53:38;100340.31;;;10.02
67515;BMP280;60646;55.802;37.032;2023-03-19T14:56:11;100334.13;;;9.95
67515;BMP280;60646;55.802;37.032;2023-03-19T14:59:01;100350.34;;;10.07
67515;BMP280;60646;55.802;37.032;2023-03-19T15:01:33;100352.19;;;10.01
67515;BMP280;60646;55.802;37.032;2023-03-19T15:04:04;100334.75;;;9.90
67515;BMP280;60646;55.802;37.032;2023-03-19T15:06:39;100350.91;;;9.96
67515;BMP280;60646;55.802;37.032;2023-03-19T15:09:17;100338.97;;;9.82
67515;BMP280;60646;55.802;37.032;2023-03-19T15:18:37;100343.09;;;9.69
67515;BMP280;60646;55.802;37.032;2023-03-19T15:21:03;100345.78;;;9.69
67515;BMP280;60646;55.802;37.032;2023-03-19T15:23:30;100348.78;;;9.62
67515;BMP280;60646;55.802;37.032;2023-03-19T15:26:01;100335.34;;;9.56
67515;BMP280;60646;55.802;37.032;2023-03-19T15:28:32;100367.56;;;9.67
67515;BMP280;60646;55.802;37.032;2023-03-19T15:31:08;100352.97;;;9.54
67515;BMP280;60646;55.802;37.032;2023-03-19T15:33:35;100358.88;;;9.58
67515;BMP280;60646;55.802;37.032;2023-03-19T15:36:22;100358.06;;;9.52
67515;BMP280;60646;55.802;37.032;2023-03-19T15:39:04;100354.25;;;9.44
67515;BMP280;60646;55.802;37.032;2023-03-19T15:41:32;100343.50;;;9.29
67515;BMP280;60646;55.802;37.032;2023-03-19T15:44:00;100350.16;;;9.33
67515;BMP280;60646;55.802;37.032;2023-03-19T15:46:32;100347.34;;;9.28
67515;BMP280;60646;55.802;37.032;2023-03-19T15:49:25;100361.56;;;9.34
67515;BMP280;60646;55.802;37.032;2023-03-19T15:51:58;100336.22;;;9.06
67515;BMP280;60646;55.802;37.032;2023-03-19T15:54:27;100340.50;;;9.03
67515;BMP280;60646;55.802;37.032;2023-03-19T15:56:53;100350.53;;;9.08
67515;BMP280;60646;55.802;37.032;2023-03-19T15:59:21;100348.22;;;9.01
67515;BMP280;60646;55.802;37.032;2023-03-19T16:01:49;100351.53;;;8.96
67515;BMP280;60646;55.802;37.032;2023-03-19T16:04:22;100349.75;;;8.93
67515;BMP280;60646;55.802;37.032;2023-03-19T16:06:49;100355.94;;;8.90
67515;BMP280;60646;55.802;37.032;2023-03-19T16:09:26;100361.28;;;8.90
67515;BMP280;60646;55.802;37.032;2023-03-19T16:11:57;100359.41;;;8.81
67515;BMP280;60646;55.802;37.032;2023-03-19T16:18:30;100360.53;;;8.57
67515;BMP280;60646;55.802;37.032;2023-03-19T16:21:33;100354.91;;;8.46
67515;BMP280;60646;55.802;37.032;2023-03-19T16:29:19;100337.19;;;7.97
67515;BMP280;60646;55.802;37.032;2023-03-19T16:31:57;100340.75;;;7.85
67515;BMP280;60646;55.802;37.032;2023-03-19T16:42:41;100330.66;;;7.44